sensor_id;sensor_type;location;lat;lon;timestamp;pressure;altitude;pressure_sealevel;temperature;humidity
13407;BME280;6774;48.208;10.766;2023-02-03T00:00:18;96687.63;;;4.97;83.17
13407;BME280;6774;48.208;10.766;2023-02-03T00:02:45;96708.03;;;5.03;83.74
13407;BME280;6774;48.208;10.766;2023-02-03T00:05:14;96705.88;;;5.08;83.16
13407;BME280;6774;48.208;10.766;2023-02-03T00:07:42;96702.94;;;5.01;82.88
13407;BME280;6774;48.208;10.766;2023-02-03T00:10:10;96712.53;;;5.12;83.07
13407;BME280;6774;48.208;10.766;2023-02-03T00:12:38;96702.72;;;5.25;82.39
13407;BME280;6774;48.208;10.766;2023-02-03T00:15:07;96709.97;;;5.33;81.90
13407;BME280;6774;48.208;10.766;2023-02-03T00:17:35;96710.19;;;5.30;81.66
13407;BME280;6774;48.208;10.766;2023-02-03T00:20:03;96690.75;;;5.43;81.05
13407;BME280;6774;48.208;10.766;2023-02-03T00:22:32;96684.13;;;5.39;81.56
13407;BME280;6774;48.208;10.766;2023-02-03T00:25:00;96689.34;;;5.39;81.29
13407;BME280;6774;48.208;10.766;2023-02-03T00:27:28;96683.25;;;5.39;81.54
13407;BME280;6774;48.208;10.766;2023-02-03T00:29:57;96692.00;;;5.28;81.81
13407;BME280;6774;48.208;10.766;2023-02-03T00:32:24;96684.22;;;5.17;82.34
13407;BME280;6774;48.208;10.766;2023-02-03T00:34:53;96682.97;;;5.32;81.31
13407;BME280;6774;48.208;10.766;2023-02-03T00:37:21;96692.16;;;5.48;80.86
13407;BME280;6774;48.208;10.766;2023-02-03T00:39:51;96696.00;;;5.43;80.93
13407;BME280;6774;48.208;10.766;2023-02-03T00:42:19;96692.41;;;5.45;80.49
13407;BME280;6774;48.208;10.766;2023-02-03T00:44:47;96694.53;;;5.51;80.12
13407;BME280;6774;48.208;10.766;2023-02-03T00:47:15;96684.28;;;5.48;80.33
13407;BME280;6774;48.208;10.766;2023-02-03T00:49:43;96685.59;;;5.53;80.10
13407;BME280;6774;48.208;10.766;2023-02-03T00:52:11;96681.88;;;5.56;80.50
13407;BME280;6774;48.208;10.766;2023-02-03T00:54:38;96689.72;;;5.56;80.16
13407;BME280;6774;48.208;10.766;2023-02-03T00:57:08;96698.81;;;5.52;80.11
13407;BME280;6774;48.208;10.766;2023-02-03T00:59:40;96692.97;;;5.48;80.17
13407;BME280;6774;48.208;10.766;2023-02-03T01:02:08;96694.59;;;5.39;80.59
13407;BME280;6774;48.208;10.766;2023-02-03T01:04:36;96696.69;;;5.46;80.43
13407;BME280;6774;48.208;10.766;2023-02-03T01:07:04;96694.34;;;5.42;80.81
13407;BME280;6774;48.208;10.766;2023-02-03T01:09:34;96705.63;;;5.43;80.27
13407;BME280;6774;48.208;10.766;2023-02-03T01:12:03;96702.25;;;5.31;80.63
13407;BME280;6774;48.208;10.766;2023-02-03T01:14:34;96707.72;;;5.28;81.69
13407;BME280;6774;48.208;10.766;2023-02-03T01:17:03;96711.44;;;5.47;80.94
13407;BME280;6774;48.208;10.766;2023-02-03T01:19:31;96704.19;;;5.39;80.77
13407;BME280;6774;48.208;10.766;2023-02-03T01:21:59;96696.47;;;5.37;80.82
13407;BME280;6774;48.208;10.766;2023-02-03T01:24:28;96704.72;;;5.33;80.74
13407;BME280;6774;48.208;10.766;2023-02-03T01:26:56;96707.28;;;5.44;80.18
13407;BME280;6774;48.208;10.766;2023-02-03T01:29:26;96706.00;;;5.38;81.08
13407;BME280;6774;48.208;10.766;2023-02-03T01:31:55;96704.13;;;5.29;81.12
13407;BME280;6774;48.208;10.766;2023-02-03T01:34:23;96706.78;;;5.18;81.04
13407;BME280;6774;48.208;10.766;2023-02-03T01:36:51;96711.22;;;5.38;81.08
13407;BME280;6774;48.208;10.766;2023-02-03T01:39:20;96698.28;;;5.37;81.05
13407;BME280;6774;48.208;10.766;2023-02-03T01:41:48;96702.72;;;5.25;81.44
13407;BME280;6774;48.208;10.766;2023-02-03T01:44:38;96709.38;;;4.97;82.78
13407;BME280;6774;48.208;10.766;2023-02-03T01:47:14;96705.84;;;5.19;82.09
13407;BME280;6774;48.208;10.766;2023-02-03T01:49:46;96695.00;;;4.92;82.96
13407;BME280;6774;48.208;10.766;2023-02-03T01:52:15;96686.63;;;5.09;82.40
13407;BME280;6774;48.208;10.766;2023-02-03T01:54:45;96677.72;;;5.32;81.29
13407;BME280;6774;48.208;10.766;2023-02-03T01:57:16;96677.03;;;5.30;81.13
13407;BME280;6774;48.208;10.766;2023-02-03T01:59:47;96668.66;;;5.36;80.98
13407;BME280;6774;48.208;10.766;2023-02-03T02:02:17;96675.75;;;5.46;80.72
13407;BME280;6774;48.208;10.766;2023-02-03T02:04:51;96666.44;;;5.53;80.39
13407;BME280;6774;48.208;10.766;2023-02-03T02:07:20;96665.19;;;5.15;81.06
13407;BME280;6774;48.208;10.766;2023-02-03T02:09:48;96677.19;;;5.38;81.01
13407;BME280;6774;48.208;10.766;2023-02-03T02:12:16;96673.44;;;5.31;81.00
13407;BME280;6774;48.208;10.766;2023-02-03T02:14:45;96672.72;;;5.29;80.69
13407;BME280;6774;48.208;10.766;2023-02-03T02:17:27;96683.91;;;5.31;80.09
13407;BME280;6774;48.208;10.766;2023-02-03T02:20:28;96680.78;;;5.37;80.62
13407;BME280;6774;48.208;10.766;2023-02-03T02:23:10;96663.81;;;5.53;79.69
13407;BME280;6774;48.208;10.766;2023-02-03T02:25:59;96661.19;;;5.53;79.51
13407;BME280;6774;48.208;10.766;2023-02-03T02:28:52;96654.56;;;4.96;81.61
13407;BME280;6774;48.208;10.766;2023-02-03T02:31:44;96664.88;;;4.76;82.17
13407;BME280;6774;48.208;10.766;2023-02-03T02:34:23;96673.84;;;4.83;82.04
13407;BME280;6774;48.208;10.766;2023-02-03T02:37:01;96667.75;;;4.62;83.23
13407;BME280;6774;48.208;10.766;2023-02-03T02:39:37;96674.78;;;4.50;84.12
13407;BME280;6774;48.208;10.766;2023-02-03T02:42:14;96666.75;;;4.74;82.92
13407;BME280;6774;48.208;10.766;2023-02-03T02:44:45;96654.84;;;4.81;81.88
13407;BME280;6774;48.208;10.766;2023-02-03T02:47:18;96652.50;;;4.78;81.97
13407;BME280;6774;48.208;10.766;2023-02-03T02:49:53;96651.75;;;4.88;81.71
13407;BME280;6774;48.208;10.766;2023-02-03T02:52:27;96650.78;;;4.89;82.22
13407;BME280;6774;48.208;10.766;2023-02-03T02:55:04;96657.03;;;4.76;82.14
13407;BME280;6774;48.208;10.766;2023-02-03T02:57:33;96628.34;;;4.86;81.91
13407;BME280;6774;48.208;10.766;2023-02-03T03:00:03;96635.38;;;4.74;81.95
13407;BME280;6774;48.208;10.766;2023-02-03T03:02:34;96652.28;;;4.70;82.34
13407;BME280;6774;48.208;10.766;2023-02-03T03:05:03;96652.75;;;4.64;82.99
13407;BME280;6774;48.208;10.766;2023-02-03T03:07:40;96657.22;;;4.84;81.86
13407;BME280;6774;48.208;10.766;2023-02-03T03:10:12;96675.47;;;4.64;82.38
13407;BME280;6774;48.208;10.766;2023-02-03T03:12:45;96670.84;;;4.56;82.49
13407;BME280;6774;48.208;10.766;2023-02-03T03:15:19;96658.47;;;4.69;82.81
13407;BME280;6774;48.208;10.766;2023-02-03T03:17:56;96644.38;;;4.81;82.28
13407;BME280;6774;48.208;10.766;2023-02-03T03:20:26;96642.25;;;4.75;82.71
13407;BME280;6774;48.208;10.766;2023-02-03T03:22:57;96641.06;;;4.79;82.28
13407;BME280;6774;48.208;10.766;2023-02-03T03:25:30;96639.97;;;4.82;82.03
13407;BME280;6774;48.208;10.766;2023-02-03T03:28:06;96655.06;;;4.90;81.35
13407;BME280;6774;48.208;10.766;2023-02-03T03:30:37;96663.78;;;4.79;81.51
13407;BME280;6774;48.208;10.766;2023-02-03T03:33:07;96661.03;;;4.80;81.47
13407;BME280;6774;48.208;10.766;2023-02-03T03:35:39;96662.94;;;4.78;81.43
13407;BME280;6774;48.208;10.766;2023-02-03T03:38:14;96652.06;;;4.62;82.63
13407;BME280;6774;48.208;10.766;2023-02-03T03:40:49;96651.78;;;4.65;83.48
13407;BME280;6774;48.208;10.766;2023-02-03T03:43:19;96661.53;;;4.74;82.44
13407;BME280;6774;48.208;10.766;2023-02-03T03:45:53;96666.53;;;4.77;82.34
13407;BME280;6774;48.208;10.766;2023-02-03T03:48:27;96642.50;;;4.72;82.02
13407;BME280;6774;48.208;10.766;2023-02-03T03:51:01;96644.56;;;4.69;81.82
13407;BME280;6774;48.208;10.766;2023-02-03T03:53:34;96639.09;;;4.61;82.22
13407;BME280;6774;48.208;10.766;2023-02-03T03:56:06;96650.84;;;4.77;81.99
13407;BME280;6774;48.208;10.766;2023-02-03T03:58:36;96636.38;;;4.62;82.04
13407;BME280;6774;48.208;10.766;2023-02-03T04:01:07;96639.47;;;4.67;82.86
13407;BME280;6774;48.208;10.766;2023-02-03T04:03:39;96649.75;;;4.80;81.64
13407;BME280;6774;48.208;10.766;2023-02-03T04:06:08;96651.31;;;4.71;81.99
13407;BME280;6774;48.208;10.766;2023-02-03T04:08:36;96635.41;;;4.63;82.12
13407;BME280;6774;48.208;10.766;2023-02-03T04:11:05;96635.53;;;4.62;82.48
13407;BME280;6774;48.208;10.766;2023-02-03T04:13:33;96654.44;;;4.54;82.17
13407;BME280;6774;48.208;10.766;2023-02-03T04:16:00;96655.50;;;4.63;82.18
13407;BME280;6774;48.208;10.766;2023-02-03T04:18:29;96664.66;;;4.57;82.14
13407;BME280;6774;48.208;10.766;2023-02-03T04:20:58;96666.56;;;4.55;82.02
13407;BME280;6774;48.208;10.766;2023-02-03T04:23:26;96687.00;;;4.39;82.91
13407;BME280;6774;48.208;10.766;2023-02-03T04:25:54;96682.03;;;4.58;82.09
13407;BME280;6774;48.208;10.766;2023-02-03T04:28:22;96693.69;;;4.43;83.24
13407;BME280;6774;48.208;10.766;2023-02-03T04:30:50;96694.16;;;4.37;83.79
13407;BME280;6774;48.208;10.766;2023-02-03T04:33:18;96691.75;;;4.45;83.13
13407;BME280;6774;48.208;10.766;2023-02-03T04:35:45;96683.19;;;4.54;82.84
13407;BME280;6774;48.208;10.766;2023-02-03T04:38:15;96685.97;;;4.41;83.27
13407;BME280;6774;48.208;10.766;2023-02-03T04:40:42;96685.47;;;4.47;82.99
13407;BME280;6774;48.208;10.766;2023-02-03T04:43:11;96671.13;;;4.19;83.14
13407;BME280;6774;48.208;10.766;2023-02-03T04:45:39;96689.75;;;4.37;83.83
13407;BME280;6774;48.208;10.766;2023-02-03T04:48:07;96687.16;;;4.48;83.06
13407;BME280;6774;48.208;10.766;2023-02-03T04:50:35;96688.19;;;4.46;83.19
13407;BME280;6774;48.208;10.766;2023-02-03T04:53:03;96678.25;;;4.40;82.88
13407;BME280;6774;48.208;10.766;2023-02-03T04:55:32;96687.50;;;4.44;83.21
13407;BME280;6774;48.208;10.766;2023-02-03T04:58:00;96682.94;;;4.57;83.22
13407;BME280;6774;48.208;10.766;2023-02-03T05:00:28;96668.47;;;4.53;83.42
13407;BME280;6774;48.208;10.766;2023-02-03T05:02:56;96682.88;;;4.36;84.23
13407;BME280;6774;48.208;10.766;2023-02-03T05:05:24;96679.44;;;4.24;84.96
13407;BME280;6774;48.208;10.766;2023-02-03T05:07:52;96668.75;;;4.27;84.62
13407;BME280;6774;48.208;10.766;2023-02-03T05:10:20;96678.97;;;4.31;84.02
13407;BME280;6774;48.208;10.766;2023-02-03T05:12:49;96682.66;;;4.39;83.11
13407;BME280;6774;48.208;10.766;2023-02-03T05:15:17;96692.97;;;4.29;83.17
13407;BME280;6774;48.208;10.766;2023-02-03T05:17:45;96697.25;;;4.31;83.34
13407;BME280;6774;48.208;10.766;2023-02-03T05:20:13;96710.06;;;4.34;83.48
13407;BME280;6774;48.208;10.766;2023-02-03T05:22:41;96684.53;;;4.37;82.58
13407;BME280;6774;48.208;10.766;2023-02-03T05:25:09;96687.50;;;4.33;82.84
13407;BME280;6774;48.208;10.766;2023-02-03T05:27:38;96676.56;;;4.39;82.34
13407;BME280;6774;48.208;10.766;2023-02-03T05:30:09;96694.03;;;4.49;81.79
13407;BME280;6774;48.208;10.766;2023-02-03T05:32:37;96685.38;;;4.49;81.71
13407;BME280;6774;48.208;10.766;2023-02-03T05:35:05;96677.03;;;4.44;81.90
13407;BME280;6774;48.208;10.766;2023-02-03T05:37:33;96668.13;;;4.46;82.01
13407;BME280;6774;48.208;10.766;2023-02-03T05:40:00;96662.66;;;4.49;81.85
13407;BME280;6774;48.208;10.766;2023-02-03T05:42:46;96662.44;;;4.41;82.11
13407;BME280;6774;48.208;10.766;2023-02-03T05:45:15;96653.53;;;4.44;82.20
13407;BME280;6774;48.208;10.766;2023-02-03T05:47:43;96689.84;;;4.47;81.87
13407;BME280;6774;48.208;10.766;2023-02-03T05:50:11;96668.97;;;4.36;82.04
13407;BME280;6774;48.208;10.766;2023-02-03T05:52:39;96676.94;;;4.34;82.01
13407;BME280;6774;48.208;10.766;2023-02-03T05:55:07;96661.63;;;4.41;82.53
13407;BME280;6774;48.208;10.766;2023-02-03T05:57:34;96646.66;;;4.20;82.91
13407;BME280;6774;48.208;10.766;2023-02-03T06:00:02;96657.97;;;4.21;83.40
13407;BME280;6774;48.208;10.766;2023-02-03T06:02:38;96645.94;;;4.29;82.90
13407;BME280;6774;48.208;10.766;2023-02-03T06:05:06;96645.94;;;4.29;82.88
13407;BME280;6774;48.208;10.766;2023-02-03T06:07:34;96647.81;;;4.39;82.85
13407;BME280;6774;48.208;10.766;2023-02-03T06:10:02;96647.94;;;4.37;82.68
13407;BME280;6774;48.208;10.766;2023-02-03T06:12:30;96656.38;;;4.29;82.59
13407;BME280;6774;48.208;10.766;2023-02-03T06:14:58;96658.06;;;4.31;82.91
13407;BME280;6774;48.208;10.766;2023-02-03T06:17:26;96651.06;;;4.74;81.24
13407;BME280;6774;48.208;10.766;2023-02-03T06:19:55;96661.69;;;4.94;80.05
13407;BME280;6774;48.208;10.766;2023-02-03T06:22:23;96646.75;;;4.84;80.12
13407;BME280;6774;48.208;10.766;2023-02-03T06:24:50;96646.69;;;5.07;79.72
13407;BME280;6774;48.208;10.766;2023-02-03T06:27:18;96665.41;;;4.91;79.70
13407;BME280;6774;48.208;10.766;2023-02-03T06:29:46;96655.47;;;5.06;80.15
13407;BME280;6774;48.208;10.766;2023-02-03T06:32:14;96651.84;;;4.97;79.83
13407;BME280;6774;48.208;10.766;2023-02-03T06:34:42;96667.44;;;4.88;80.64
13407;BME280;6774;48.208;10.766;2023-02-03T06:37:11;96664.13;;;4.74;80.91
13407;BME280;6774;48.208;10.766;2023-02-03T06:39:39;96667.66;;;4.84;80.66
13407;BME280;6774;48.208;10.766;2023-02-03T06:42:07;96652.16;;;5.04;79.61
13407;BME280;6774;48.208;10.766;2023-02-03T06:44:34;96675.97;;;4.90;79.99
13407;BME280;6774;48.208;10.766;2023-02-03T06:47:03;96671.75;;;4.77;80.62
13407;BME280;6774;48.208;10.766;2023-02-03T06:49:31;96653.16;;;4.92;79.97
13407;BME280;6774;48.208;10.766;2023-02-03T06:51:58;96672.25;;;5.03;79.50
13407;BME280;6774;48.208;10.766;2023-02-03T06:54:27;96675.25;;;4.99;79.82
13407;BME280;6774;48.208;10.766;2023-02-03T06:56:56;96702.19;;;4.78;80.58
13407;BME280;6774;48.208;10.766;2023-02-03T06:59:23;96683.91;;;4.56;81.00
13407;BME280;6774;48.208;10.766;2023-02-03T07:01:51;96685.81;;;4.54;80.85
13407;BME280;6774;48.208;10.766;2023-02-03T07:04:19;96668.13;;;4.57;80.90
13407;BME280;6774;48.208;10.766;2023-02-03T07:06:47;96669.84;;;4.79;80.74
13407;BME280;6774;48.208;10.766;2023-02-03T07:09:15;96671.50;;;4.80;81.24
13407;BME280;6774;48.208;10.766;2023-02-03T07:11:44;96665.25;;;4.93;80.11
13407;BME280;6774;48.208;10.766;2023-02-03T07:14:12;96656.47;;;4.94;79.42
13407;BME280;6774;48.208;10.766;2023-02-03T07:16:40;96668.16;;;5.10;79.12
13407;BME280;6774;48.208;10.766;2023-02-03T07:19:09;96658.09;;;5.06;79.04
13407;BME280;6774;48.208;10.766;2023-02-03T07:21:36;96653.31;;;5.11;78.60
13407;BME280;6774;48.208;10.766;2023-02-03T07:24:05;96637.88;;;5.08;78.51
13407;BME280;6774;48.208;10.766;2023-02-03T07:26:33;96645.91;;;5.16;78.39
13407;BME280;6774;48.208;10.766;2023-02-03T07:29:02;96640.69;;;4.84;78.17
13407;BME280;6774;48.208;10.766;2023-02-03T07:31:30;96649.50;;;5.15;78.57
13407;BME280;6774;48.208;10.766;2023-02-03T07:33:58;96625.94;;;5.36;77.92
13407;BME280;6774;48.208;10.766;2023-02-03T07:36:26;96615.56;;;5.25;78.04
13407;BME280;6774;48.208;10.766;2023-02-03T07:38:54;96618.59;;;5.30;77.79
13407;BME280;6774;48.208;10.766;2023-02-03T07:41:22;96610.88;;;5.28;77.94
13407;BME280;6774;48.208;10.766;2023-02-03T07:43:50;96629.25;;;5.38;77.95
13407;BME280;6774;48.208;10.766;2023-02-03T07:46:19;96635.53;;;4.94;78.42
13407;BME280;6774;48.208;10.766;2023-02-03T07:48:47;96607.25;;;5.40;77.27
13407;BME280;6774;48.208;10.766;2023-02-03T07:51:14;96605.97;;;5.14;77.85
13407;BME280;6774;48.208;10.766;2023-02-03T07:53:42;96614.25;;;5.19;77.48
13407;BME280;6774;48.208;10.766;2023-02-03T07:56:10;96631.31;;;5.34;77.71
13407;BME280;6774;48.208;10.766;2023-02-03T07:58:38;96644.19;;;5.47;76.69
13407;BME280;6774;48.208;10.766;2023-02-03T08:01:10;96647.09;;;5.44;77.54
13407;BME280;6774;48.208;10.766;2023-02-03T08:03:39;96635.00;;;5.53;76.74
13407;BME280;6774;48.208;10.766;2023-02-03T08:06:07;96626.66;;;5.59;76.18
13407;BME280;6774;48.208;10.766;2023-02-03T08:08:35;96643.03;;;5.82;76.30
13407;BME280;6774;48.208;10.766;2023-02-03T08:11:03;96646.28;;;5.74;75.44
13407;BME280;6774;48.208;10.766;2023-02-03T08:13:31;96649.91;;;5.83;75.60
13407;BME280;6774;48.208;10.766;2023-02-03T08:15:59;96655.38;;;5.70;75.58
13407;BME280;6774;48.208;10.766;2023-02-03T08:18:27;96652.94;;;5.78;75.43
13407;BME280;6774;48.208;10.766;2023-02-03T08:21:00;96674.19;;;5.85;75.77
13407;BME280;6774;48.208;10.766;2023-02-03T08:23:29;96674.41;;;5.72;76.05
13407;BME280;6774;48.208;10.766;2023-02-03T08:25:57;96682.19;;;5.83;75.12
13407;BME280;6774;48.208;10.766;2023-02-03T08:28:25;96675.38;;;5.71;75.66
13407;BME280;6774;48.208;10.766;2023-02-03T08:30:53;96681.47;;;6.02;75.23
13407;BME280;6774;48.208;10.766;2023-02-03T08:33:22;96682.06;;;6.06;74.34
13407;BME280;6774;48.208;10.766;2023-02-03T08:35:50;96679.63;;;6.14;74.65
13407;BME280;6774;48.208;10.766;2023-02-03T08:38:19;96680.66;;;6.02;74.39
13407;BME280;6774;48.208;10.766;2023-02-03T08:40:47;96675.41;;;6.02;73.97
13407;BME280;6774;48.208;10.766;2023-02-03T08:43:15;96674.81;;;6.19;74.16
13407;BME280;6774;48.208;10.766;2023-02-03T08:45:42;96653.91;;;5.98;74.87
13407;BME280;6774;48.208;10.766;2023-02-03T08:48:11;96668.00;;;6.07;74.81
13407;BME280;6774;48.208;10.766;2023-02-03T08:50:40;96665.19;;;5.98;75.38
13407;BME280;6774;48.208;10.766;2023-02-03T08:53:07;96672.38;;;5.96;74.74
13407;BME280;6774;48.208;10.766;2023-02-03T08:55:38;96677.84;;;5.93;75.63
13407;BME280;6774;48.208;10.766;2023-02-03T08:58:06;96667.50;;;6.13;74.89
13407;BME280;6774;48.208;10.766;2023-02-03T09:00:34;96661.09;;;6.06;74.71
13407;BME280;6774;48.208;10.766;2023-02-03T09:03:02;96649.03;;;6.24;74.67
13407;BME280;6774;48.208;10.766;2023-02-03T09:05:31;96650.06;;;6.12;74.62
13407;BME280;6774;48.208;10.766;2023-02-03T09:07:59;96657.59;;;6.26;74.70
13407;BME280;6774;48.208;10.766;2023-02-03T09:10:26;96651.75;;;6.13;75.24
13407;BME280;6774;48.208;10.766;2023-02-03T09:12:56;96650.28;;;6.30;74.99
13407;BME280;6774;48.208;10.766;2023-02-03T09:15:24;96672.47;;;6.16;74.54
13407;BME280;6774;48.208;10.766;2023-02-03T09:17:52;96652.09;;;6.39;75.44
13407;BME280;6774;48.208;10.766;2023-02-03T09:20:22;96665.03;;;6.31;74.02
13407;BME280;6774;48.208;10.766;2023-02-03T09:22:52;96667.28;;;6.35;74.86
13407;BME280;6774;48.208;10.766;2023-02-03T09:25:20;96681.47;;;6.23;73.53
13407;BME280;6774;48.208;10.766;2023-02-03T09:27:48;96644.56;;;6.05;75.11
13407;BME280;6774;48.208;10.766;2023-02-03T09:30:17;96664.78;;;6.24;74.01
13407;BME280;6774;48.208;10.766;2023-02-03T09:32:45;96649.22;;;6.02;75.23
13407;BME280;6774;48.208;10.766;2023-02-03T09:35:19;96649.81;;;6.55;73.74
13407;BME280;6774;48.208;10.766;2023-02-03T09:37:47;96663.06;;;6.53;72.84
13407;BME280;6774;48.208;10.766;2023-02-03T09:40:20;96652.44;;;6.55;72.81
13407;BME280;6774;48.208;10.766;2023-02-03T09:43:03;96646.13;;;6.77;73.57
13407;BME280;6774;48.208;10.766;2023-02-03T09:45:34;96619.63;;;6.99;72.17
13407;BME280;6774;48.208;10.766;2023-02-03T09:48:05;96645.88;;;6.99;72.28
13407;BME280;6774;48.208;10.766;2023-02-03T09:50:38;96643.09;;;6.91;72.67
13407;BME280;6774;48.208;10.766;2023-02-03T09:53:20;96630.78;;;6.63;73.34
13407;BME280;6774;48.208;10.766;2023-02-03T09:55:50;96625.69;;;6.80;72.74
13407;BME280;6774;48.208;10.766;2023-02-03T09:58:19;96627.66;;;6.98;73.47
13407;BME280;6774;48.208;10.766;2023-02-03T10:00:51;96622.25;;;6.70;72.64
13407;BME280;6774;48.208;10.766;2023-02-03T10:03:27;96638.53;;;6.74;72.73
13407;BME280;6774;48.208;10.766;2023-02-03T10:06:09;96658.56;;;6.94;73.12
13407;BME280;6774;48.208;10.766;2023-02-03T10:08:51;96657.41;;;6.58;74.14
13407;BME280;6774;48.208;10.766;2023-02-03T10:11:37;96681.13;;;6.56;73.60
13407;BME280;6774;48.208;10.766;2023-02-03T10:14:16;96656.50;;;6.78;72.77
13407;BME280;6774;48.208;10.766;2023-02-03T10:17:01;96629.81;;;6.64;72.76
13407;BME280;6774;48.208;10.766;2023-02-03T10:19:39;96631.22;;;6.68;73.22
13407;BME280;6774;48.208;10.766;2023-02-03T10:22:12;96624.84;;;6.61;73.72
13407;BME280;6774;48.208;10.766;2023-02-03T10:24:47;96616.84;;;6.72;72.61
13407;BME280;6774;48.208;10.766;2023-02-03T10:27:20;96617.94;;;6.60;73.73
13407;BME280;6774;48.208;10.766;2023-02-03T10:29:53;96617.41;;;6.95;72.32
13407;BME280;6774;48.208;10.766;2023-02-03T10:32:25;96617.97;;;6.69;73.33
13407;BME280;6774;48.208;10.766;2023-02-03T10:34:53;96630.81;;;6.82;71.45
13407;BME280;6774;48.208;10.766;2023-02-03T10:37:25;96618.25;;;6.95;72.27
13407;BME280;6774;48.208;10.766;2023-02-03T10:39:58;96631.25;;;7.06;72.92
13407;BME280;6774;48.208;10.766;2023-02-03T10:42:28;96621.97;;;7.22;70.53
13407;BME280;6774;48.208;10.766;2023-02-03T10:45:16;96640.91;;;7.16;71.04
13407;BME280;6774;48.208;10.766;2023-02-03T10:47:47;96619.91;;;7.16;71.46
13407;BME280;6774;48.208;10.766;2023-02-03T10:50:19;96612.72;;;6.98;73.16
13407;BME280;6774;48.208;10.766;2023-02-03T10:52:50;96603.59;;;7.22;70.80
13407;BME280;6774;48.208;10.766;2023-02-03T10:55:29;96626.53;;;7.20;70.90
13407;BME280;6774;48.208;10.766;2023-02-03T10:58:05;96615.47;;;7.26;70.58
13407;BME280;6774;48.208;10.766;2023-02-03T11:00:37;96617.25;;;7.35;71.04
13407;BME280;6774;48.208;10.766;2023-02-03T11:03:19;96618.78;;;7.28;71.14
13407;BME280;6774;48.208;10.766;2023-02-03T11:06:02;96629.59;;;7.05;71.71
13407;BME280;6774;48.208;10.766;2023-02-03T11:08:32;96631.22;;;7.26;70.79
13407;BME280;6774;48.208;10.766;2023-02-03T11:11:04;96632.03;;;7.36;69.47
13407;BME280;6774;48.208;10.766;2023-02-03T11:13:33;96623.63;;;7.42;70.21
13407;BME280;6774;48.208;10.766;2023-02-03T11:16:02;96630.13;;;7.19;70.99
13407;BME280;6774;48.208;10.766;2023-02-03T11:18:55;96636.34;;;6.79;72.39
13407;BME280;6774;48.208;10.766;2023-02-03T11:21:27;96626.53;;;7.10;72.48
13407;BME280;6774;48.208;10.766;2023-02-03T11:24:01;96598.03;;;7.44;71.32
13407;BME280;6774;48.208;10.766;2023-02-03T11:26:33;96604.44;;;7.32;71.01
13407;BME280;6774;48.208;10.766;2023-02-03T11:29:04;96607.63;;;7.06;71.44
13407;BME280;6774;48.208;10.766;2023-02-03T11:31:34;96621.28;;;7.00;72.52
13407;BME280;6774;48.208;10.766;2023-02-03T11:34:06;96617.16;;;7.07;72.29
13407;BME280;6774;48.208;10.766;2023-02-03T11:36:41;96621.84;;;7.13;73.52
13407;BME280;6774;48.208;10.766;2023-02-03T11:39:15;96595.59;;;7.13;74.06
13407;BME280;6774;48.208;10.766;2023-02-03T11:41:45;96594.50;;;6.87;74.36
13407;BME280;6774;48.208;10.766;2023-02-03T11:44:17;96598.50;;;6.91;74.34
13407;BME280;6774;48.208;10.766;2023-02-03T11:46:47;96591.44;;;6.63;74.24
13407;BME280;6774;48.208;10.766;2023-02-03T11:49:38;96589.25;;;6.87;74.09
13407;BME280;6774;48.208;10.766;2023-02-03T11:52:27;96572.81;;;7.04;74.12
13407;BME280;6774;48.208;10.766;2023-02-03T11:55:02;96559.69;;;6.66;74.31
13407;BME280;6774;48.208;10.766;2023-02-03T11:57:43;96564.38;;;6.72;75.44
13407;BME280;6774;48.208;10.766;2023-02-03T12:00:24;96562.59;;;6.63;73.34
13407;BME280;6774;48.208;10.766;2023-02-03T12:06:07;96548.34;;;6.36;74.40
13407;BME280;6774;48.208;10.766;2023-02-03T12:08:48;96544.91;;;6.74;73.33
13407;BME280;6774;48.208;10.766;2023-02-03T12:11:32;96558.84;;;6.75;73.33
13407;BME280;6774;48.208;10.766;2023-02-03T12:14:19;96559.13;;;7.01;73.62
13407;BME280;6774;48.208;10.766;2023-02-03T12:17:05;96552.75;;;7.03;72.04
13407;BME280;6774;48.208;10.766;2023-02-03T12:19:48;96545.88;;;6.83;73.45
13407;BME280;6774;48.208;10.766;2023-02-03T12:22:25;96538.44;;;6.69;73.72
13407;BME280;6774;48.208;10.766;2023-02-03T12:25:03;96574.59;;;6.55;74.67
13407;BME280;6774;48.208;10.766;2023-02-03T12:27:40;96527.06;;;7.17;72.50
13407;BME280;6774;48.208;10.766;2023-02-03T12:30:14;96533.16;;;7.17;72.17
13407;BME280;6774;48.208;10.766;2023-02-03T12:32:47;96522.53;;;6.99;72.17
13407;BME280;6774;48.208;10.766;2023-02-03T12:35:20;96528.22;;;7.04;72.15
13407;BME280;6774;48.208;10.766;2023-02-03T12:37:55;96513.00;;;6.98;73.27
13407;BME280;6774;48.208;10.766;2023-02-03T12:40:31;96504.97;;;7.09;72.02
13407;BME280;6774;48.208;10.766;2023-02-03T12:43:16;96532.59;;;7.13;72.30
13407;BME280;6774;48.208;10.766;2023-02-03T12:45:51;96501.31;;;6.64;72.52
13407;BME280;6774;48.208;10.766;2023-02-03T12:48:23;96515.63;;;7.08;71.46
13407;BME280;6774;48.208;10.766;2023-02-03T12:50:56;96493.19;;;7.33;71.73
13407;BME280;6774;48.208;10.766;2023-02-03T12:53:30;96446.72;;;6.96;72.45
13407;BME280;6774;48.208;10.766;2023-02-03T12:56:02;96442.88;;;7.28;70.52
13407;BME280;6774;48.208;10.766;2023-02-03T12:58:34;96469.56;;;7.33;71.25
13407;BME280;6774;48.208;10.766;2023-02-03T13:01:07;96458.19;;;7.42;71.10
13407;BME280;6774;48.208;10.766;2023-02-03T13:03:43;96437.22;;;7.60;70.41
13407;BME280;6774;48.208;10.766;2023-02-03T13:06:15;96431.47;;;7.74;69.91
13407;BME280;6774;48.208;10.766;2023-02-03T13:08:55;96460.50;;;7.45;69.29
13407;BME280;6774;48.208;10.766;2023-02-03T13:11:29;96409.34;;;7.49;70.59
13407;BME280;6774;48.208;10.766;2023-02-03T13:14:06;96415.00;;;7.54;70.10
13407;BME280;6774;48.208;10.766;2023-02-03T13:16:42;96428.41;;;7.24;71.71
13407;BME280;6774;48.208;10.766;2023-02-03T13:19:16;96423.13;;;7.61;70.44
13407;BME280;6774;48.208;10.766;2023-02-03T13:21:47;96429.41;;;7.50;71.18
13407;BME280;6774;48.208;10.766;2023-02-03T13:24:16;96410.97;;;7.32;71.26
13407;BME280;6774;48.208;10.766;2023-02-03T13:27:09;96417.22;;;7.49;70.75
13407;BME280;6774;48.208;10.766;2023-02-03T13:29:49;96416.66;;;7.55;70.42
13407;BME280;6774;48.208;10.766;2023-02-03T13:32:30;96412.81;;;7.67;69.78
13407;BME280;6774;48.208;10.766;2023-02-03T13:35:14;96412.00;;;7.39;71.33